sensor_id;sensor_type;location;lat;lon;timestamp;temperature;humidity
22678;DHT22;26259;50.214;18.620;2022-08-24T00:01:06;18.50;99.90
22678;DHT22;26259;50.214;18.620;2022-08-24T00:03:33;18.40;99.90
22678;DHT22;26259;50.214;18.620;2022-08-24T00:05:59;18.40;99.90
22678;DHT22;26259;50.214;18.620;2022-08-24T00:08:26;18.40;99.90
22678;DHT22;26259;50.214;18.620;2022-08-24T00:10:52;18.40;99.90
22678;DHT22;26259;50.214;18.620;2022-08-24T00:13:18;18.50;99.90
22678;DHT22;26259;50.214;18.620;2022-08-24T00:15:44;18.50;99.90
22678;DHT22;26259;50.214;18.620;2022-08-24T00:18:11;18.40;99.90
22678;DHT22;26259;50.214;18.620;2022-08-24T00:20:38;18.50;99.90
22678;DHT22;26259;50.214;18.620;2022-08-24T00:23:04;18.50;99.90
22678;DHT22;26259;50.214;18.620;2022-08-24T00:25:31;18.40;99.90
22678;DHT22;26259;50.214;18.620;2022-08-24T00:27:57;18.40;99.90
22678;DHT22;26259;50.214;18.620;2022-08-24T00:30:23;18.40;99.90
22678;DHT22;26259;50.214;18.620;2022-08-24T00:32:49;18.40;99.90
22678;DHT22;26259;50.214;18.620;2022-08-24T00:35:16;18.40;99.90
22678;DHT22;26259;50.214;18.620;2022-08-24T00:37:46;18.40;99.90
22678;DHT22;26259;50.214;18.620;2022-08-24T00:40:16;18.40;99.90
22678;DHT22;26259;50.214;18.620;2022-08-24T00:42:42;18.50;99.90
22678;DHT22;26259;50.214;18.620;2022-08-24T00:45:10;18.50;99.90
22678;DHT22;26259;50.214;18.620;2022-08-24T00:47:51;18.40;99.90
22678;DHT22;26259;50.214;18.620;2022-08-24T00:50:22;18.40;99.90
22678;DHT22;26259;50.214;18.620;2022-08-24T00:52:54;18.50;99.90
22678;DHT22;26259;50.214;18.620;2022-08-24T00:55:27;18.50;99.90
22678;DHT22;26259;50.214;18.620;2022-08-24T00:57:57;18.50;99.90
22678;DHT22;26259;50.214;18.620;2022-08-24T01:00:28;18.50;99.90
22678;DHT22;26259;50.214;18.620;2022-08-24T01:02:59;18.50;99.90
22678;DHT22;26259;50.214;18.620;2022-08-24T01:05:30;18.50;99.90
22678;DHT22;26259;50.214;18.620;2022-08-24T01:07:56;18.60;99.90
22678;DHT22;26259;50.214;18.620;2022-08-24T01:10:25;18.50;99.90
22678;DHT22;26259;50.214;18.620;2022-08-24T01:12:54;18.50;99.90
22678;DHT22;26259;50.214;18.620;2022-08-24T01:15:21;18.50;99.90
22678;DHT22;26259;50.214;18.620;2022-08-24T01:17:48;18.50;99.90
22678;DHT22;26259;50.214;18.620;2022-08-24T01:20:33;18.50;99.90
22678;DHT22;26259;50.214;18.620;2022-08-24T01:26:19;18.40;99.90
22678;DHT22;26259;50.214;18.620;2022-08-24T01:28:48;18.40;99.90
22678;DHT22;26259;50.214;18.620;2022-08-24T01:31:19;18.40;99.90
22678;DHT22;26259;50.214;18.620;2022-08-24T01:33:48;18.40;99.90
22678;DHT22;26259;50.214;18.620;2022-08-24T01:36:26;18.40;99.90
22678;DHT22;26259;50.214;18.620;2022-08-24T01:38:53;18.40;99.90
22678;DHT22;26259;50.214;18.620;2022-08-24T01:41:18;18.40;99.90
22678;DHT22;26259;50.214;18.620;2022-08-24T01:43:44;18.40;99.90
22678;DHT22;26259;50.214;18.620;2022-08-24T01:46:10;18.40;99.90
22678;DHT22;26259;50.214;18.620;2022-08-24T01:48:36;18.40;99.90
22678;DHT22;26259;50.214;18.620;2022-08-24T01:51:01;18.30;99.90
22678;DHT22;26259;50.214;18.620;2022-08-24T01:53:27;18.30;99.90
22678;DHT22;26259;50.214;18.620;2022-08-24T01:55:53;18.30;99.90
22678;DHT22;26259;50.214;18.620;2022-08-24T01:58:18;18.30;99.90
22678;DHT22;26259;50.214;18.620;2022-08-24T02:00:44;18.30;99.90
22678;DHT22;26259;50.214;18.620;2022-08-24T02:03:10;18.30;99.90
22678;DHT22;26259;50.214;18.620;2022-08-24T02:05:36;18.40;99.90
22678;DHT22;26259;50.214;18.620;2022-08-24T02:08:02;18.30;99.90
22678;DHT22;26259;50.214;18.620;2022-08-24T02:10:28;18.40;99.90
22678;DHT22;26259;50.214;18.620;2022-08-24T02:12:54;18.40;99.90
22678;DHT22;26259;50.214;18.620;2022-08-24T02:15:35;18.30;99.90
22678;DHT22;26259;50.214;18.620;2022-08-24T02:18:05;18.30;99.90
22678;DHT22;26259;50.214;18.620;2022-08-24T02:20:31;18.30;99.90
22678;DHT22;26259;50.214;18.620;2022-08-24T02:22:57;18.30;99.90
22678;DHT22;26259;50.214;18.620;2022-08-24T02:25:23;18.30;99.90
22678;DHT22;26259;50.214;18.620;2022-08-24T02:27:49;18.40;99.90
22678;DHT22;26259;50.214;18.620;2022-08-24T02:30:16;18.30;99.90
22678;DHT22;26259;50.214;18.620;2022-08-24T02:32:42;18.30;99.90
22678;DHT22;26259;50.214;18.620;2022-08-24T02:35:08;18.30;99.90
22678;DHT22;26259;50.214;18.620;2022-08-24T02:37:35;18.30;99.90
22678;DHT22;26259;50.214;18.620;2022-08-24T02:40:01;18.30;99.90
22678;DHT22;26259;50.214;18.620;2022-08-24T02:42:27;18.30;99.90
22678;DHT22;26259;50.214;18.620;2022-08-24T02:44:52;18.30;99.90
22678;DHT22;26259;50.214;18.620;2022-08-24T02:47:19;18.30;99.90
22678;DHT22;26259;50.214;18.620;2022-08-24T02:49:45;18.30;99.90
22678;DHT22;26259;50.214;18.620;2022-08-24T02:52:10;18.30;99.90
22678;DHT22;26259;50.214;18.620;2022-08-24T02:54:36;18.30;99.90
22678;DHT22;26259;50.214;18.620;2022-08-24T02:57:02;18.30;99.90
22678;DHT22;26259;50.214;18.620;2022-08-24T02:59:27;18.30;99.90
22678;DHT22;26259;50.214;18.620;2022-08-24T03:01:53;18.30;99.90
22678;DHT22;26259;50.214;18.620;2022-08-24T03:04:19;18.30;99.90
22678;DHT22;26259;50.214;18.620;2022-08-24T03:06:45;18.30;99.90
22678;DHT22;26259;50.214;18.620;2022-08-24T03:09:11;18.30;99.90
22678;DHT22;26259;50.214;18.620;2022-08-24T03:11:38;18.30;99.90
22678;DHT22;26259;50.214;18.620;2022-08-24T03:14:04;18.30;99.90
22678;DHT22;26259;50.214;18.620;2022-08-24T03:16:30;18.30;99.90
22678;DHT22;26259;50.214;18.620;2022-08-24T03:18:56;18.30;99.90
22678;DHT22;26259;50.214;18.620;2022-08-24T03:21:21;18.30;99.90
22678;DHT22;26259;50.214;18.620;2022-08-24T03:23:47;18.30;99.90
22678;DHT22;26259;50.214;18.620;2022-08-24T03:26:13;18.30;99.90
22678;DHT22;26259;50.214;18.620;2022-08-24T03:28:39;18.40;99.90
22678;DHT22;26259;50.214;18.620;2022-08-24T03:31:05;18.40;99.90
22678;DHT22;26259;50.214;18.620;2022-08-24T03:33:31;18.40;99.90
22678;DHT22;26259;50.214;18.620;2022-08-24T03:35:56;18.30;99.90
22678;DHT22;26259;50.214;18.620;2022-08-24T03:38:22;18.40;99.90
22678;DHT22;26259;50.214;18.620;2022-08-24T03:40:48;18.40;99.90
22678;DHT22;26259;50.214;18.620;2022-08-24T03:43:14;18.40;99.90
22678;DHT22;26259;50.214;18.620;2022-08-24T03:46:00;18.30;99.90
22678;DHT22;26259;50.214;18.620;2022-08-24T03:48:30;18.30;99.90
22678;DHT22;26259;50.214;18.620;2022-08-24T03:50:56;18.30;99.90
22678;DHT22;26259;50.214;18.620;2022-08-24T03:53:21;18.30;99.90
22678;DHT22;26259;50.214;18.620;2022-08-24T03:55:47;18.40;99.90
22678;DHT22;26259;50.214;18.620;2022-08-24T03:58:13;18.40;99.90
22678;DHT22;26259;50.214;18.620;2022-08-24T04:00:39;18.40;99.90
22678;DHT22;26259;50.214;18.620;2022-08-24T04:03:08;18.40;99.90
22678;DHT22;26259;50.214;18.620;2022-08-24T04:05:35;18.40;99.90
22678;DHT22;26259;50.214;18.620;2022-08-24T04:08:00;18.40;99.90
22678;DHT22;26259;50.214;18.620;2022-08-24T04:10:26;18.40;99.90
22678;DHT22;26259;50.214;18.620;2022-08-24T04:12:53;18.40;99.90
22678;DHT22;26259;50.214;18.620;2022-08-24T04:15:19;18.40;99.90
22678;DHT22;26259;50.214;18.620;2022-08-24T04:17:44;18.50;99.90
22678;DHT22;26259;50.214;18.620;2022-08-24T04:20:10;18.50;99.90
22678;DHT22;26259;50.214;18.620;2022-08-24T04:22:36;18.50;99.90
22678;DHT22;26259;50.214;18.620;2022-08-24T04:25:06;18.50;99.90
22678;DHT22;26259;50.214;18.620;2022-08-24T04:27:31;18.40;99.90
22678;DHT22;26259;50.214;18.620;2022-08-24T04:29:57;18.40;99.90
22678;DHT22;26259;50.214;18.620;2022-08-24T04:32:22;18.40;99.90
22678;DHT22;26259;50.214;18.620;2022-08-24T04:34:48;18.50;99.90
22678;DHT22;26259;50.214;18.620;2022-08-24T04:37:14;18.50;99.90
22678;DHT22;26259;50.214;18.620;2022-08-24T04:39:40;18.50;99.90
22678;DHT22;26259;50.214;18.620;2022-08-24T04:42:07;18.40;99.90
22678;DHT22;26259;50.214;18.620;2022-08-24T04:44:32;18.50;99.90
22678;DHT22;26259;50.214;18.620;2022-08-24T04:46:58;18.50;99.90
22678;DHT22;26259;50.214;18.620;2022-08-24T04:49:24;18.50;99.90
22678;DHT22;26259;50.214;18.620;2022-08-24T04:51:49;18.50;99.90
22678;DHT22;26259;50.214;18.620;2022-08-24T04:54:15;18.50;99.90
22678;DHT22;26259;50.214;18.620;2022-08-24T04:56:41;18.60;99.90
22678;DHT22;26259;50.214;18.620;2022-08-24T04:59:06;18.50;99.90
22678;DHT22;26259;50.214;18.620;2022-08-24T05:01:32;18.60;99.90
22678;DHT22;26259;50.214;18.620;2022-08-24T05:03:58;18.70;99.90
22678;DHT22;26259;50.214;18.620;2022-08-24T05:06:27;18.70;99.90
22678;DHT22;26259;50.214;18.620;2022-08-24T05:08:53;18.70;99.90
22678;DHT22;26259;50.214;18.620;2022-08-24T05:11:20;18.70;99.90
22678;DHT22;26259;50.214;18.620;2022-08-24T05:13:46;18.70;99.90
22678;DHT22;26259;50.214;18.620;2022-08-24T05:16:15;18.70;99.90
22678;DHT22;26259;50.214;18.620;2022-08-24T05:18:42;18.70;99.90
22678;DHT22;26259;50.214;18.620;2022-08-24T05:21:09;18.80;99.90
22678;DHT22;26259;50.214;18.620;2022-08-24T05:23:36;18.80;99.90
22678;DHT22;26259;50.214;18.620;2022-08-24T05:26:15;18.90;99.90
22678;DHT22;26259;50.214;18.620;2022-08-24T05:28:41;18.90;99.90
22678;DHT22;26259;50.214;18.620;2022-08-24T05:31:10;18.90;99.90
22678;DHT22;26259;50.214;18.620;2022-08-24T05:33:36;19.00;99.90
22678;DHT22;26259;50.214;18.620;2022-08-24T05:36:03;19.00;99.90
22678;DHT22;26259;50.214;18.620;2022-08-24T05:38:29;19.00;99.90
22678;DHT22;26259;50.214;18.620;2022-08-24T05:40:54;19.10;99.90
22678;DHT22;26259;50.214;18.620;2022-08-24T05:43:20;19.10;99.90
22678;DHT22;26259;50.214;18.620;2022-08-24T05:45:45;19.10;99.90
22678;DHT22;26259;50.214;18.620;2022-08-24T05:48:11;19.10;99.90
22678;DHT22;26259;50.214;18.620;2022-08-24T05:50:37;19.20;99.90
22678;DHT22;26259;50.214;18.620;2022-08-24T05:53:02;19.10;99.90
22678;DHT22;26259;50.214;18.620;2022-08-24T05:55:28;19.10;99.90
22678;DHT22;26259;50.214;18.620;2022-08-24T05:57:55;19.20;99.90
22678;DHT22;26259;50.214;18.620;2022-08-24T06:00:21;19.20;99.90
22678;DHT22;26259;50.214;18.620;2022-08-24T06:02:48;19.30;99.90
22678;DHT22;26259;50.214;18.620;2022-08-24T06:05:17;19.30;99.90
22678;DHT22;26259;50.214;18.620;2022-08-24T06:07:42;19.30;99.90
22678;DHT22;26259;50.214;18.620;2022-08-24T06:10:08;19.40;99.90
22678;DHT22;26259;50.214;18.620;2022-08-24T06:12:34;19.40;99.90
22678;DHT22;26259;50.214;18.620;2022-08-24T06:15:00;19.40;99.90
22678;DHT22;26259;50.214;18.620;2022-08-24T06:17:26;19.40;99.90
22678;DHT22;26259;50.214;18.620;2022-08-24T06:19:52;19.50;99.90
22678;DHT22;26259;50.214;18.620;2022-08-24T06:22:17;19.60;99.90
22678;DHT22;26259;50.214;18.620;2022-08-24T06:24:43;19.60;99.90
22678;DHT22;26259;50.214;18.620;2022-08-24T06:27:27;19.60;99.90
22678;DHT22;26259;50.214;18.620;2022-08-24T06:29:57;19.70;99.90
22678;DHT22;26259;50.214;18.620;2022-08-24T06:32:24;19.70;99.90
22678;DHT22;26259;50.214;18.620;2022-08-24T06:34:53;19.80;99.90
22678;DHT22;26259;50.214;18.620;2022-08-24T06:37:19;19.80;99.90
22678;DHT22;26259;50.214;18.620;2022-08-24T06:39:45;19.80;99.90
22678;DHT22;26259;50.214;18.620;2022-08-24T06:42:10;19.90;99.90
22678;DHT22;26259;50.214;18.620;2022-08-24T06:44:36;20.00;99.90
22678;DHT22;26259;50.214;18.620;2022-08-24T06:47:02;20.10;99.90
22678;DHT22;26259;50.214;18.620;2022-08-24T06:49:27;20.20;99.90
22678;DHT22;26259;50.214;18.620;2022-08-24T06:51:53;20.40;99.90
22678;DHT22;26259;50.214;18.620;2022-08-24T06:54:19;20.50;99.90
22678;DHT22;26259;50.214;18.620;2022-08-24T06:56:47;20.50;99.90
22678;DHT22;26259;50.214;18.620;2022-08-24T06:59:13;20.70;99.90
22678;DHT22;26259;50.214;18.620;2022-08-24T07:01:38;20.80;99.90
22678;DHT22;26259;50.214;18.620;2022-08-24T07:04:04;20.80;99.90
22678;DHT22;26259;50.214;18.620;2022-08-24T07:06:30;21.00;99.90
22678;DHT22;26259;50.214;18.620;2022-08-24T07:08:55;21.20;99.90
22678;DHT22;26259;50.214;18.620;2022-08-24T07:11:21;21.20;99.90
22678;DHT22;26259;50.214;18.620;2022-08-24T07:13:47;21.30;99.90
22678;DHT22;26259;50.214;18.620;2022-08-24T07:16:14;21.30;99.90
22678;DHT22;26259;50.214;18.620;2022-08-24T07:18:41;21.20;99.90
22678;DHT22;26259;50.214;18.620;2022-08-24T07:21:07;21.30;99.90
22678;DHT22;26259;50.214;18.620;2022-08-24T07:23:33;21.30;99.90
22678;DHT22;26259;50.214;18.620;2022-08-24T07:26:05;21.30;99.90
22678;DHT22;26259;50.214;18.620;2022-08-24T07:28:35;21.30;99.90
22678;DHT22;26259;50.214;18.620;2022-08-24T07:31:01;21.30;99.90
22678;DHT22;26259;50.214;18.620;2022-08-24T07:33:26;21.20;99.90
22678;DHT22;26259;50.214;18.620;2022-08-24T07:35:52;21.20;99.90
22678;DHT22;26259;50.214;18.620;2022-08-24T07:38:18;21.20;99.90
22678;DHT22;26259;50.214;18.620;2022-08-24T07:40:45;21.20;99.90
22678;DHT22;26259;50.214;18.620;2022-08-24T07:43:12;21.30;99.90
22678;DHT22;26259;50.214;18.620;2022-08-24T07:45:40;21.30;99.90
22678;DHT22;26259;50.214;18.620;2022-08-24T07:48:06;21.40;99.90
22678;DHT22;26259;50.214;18.620;2022-08-24T07:50:32;21.20;99.90
22678;DHT22;26259;50.214;18.620;2022-08-24T07:52:58;21.20;99.90
22678;DHT22;26259;50.214;18.620;2022-08-24T07:55:23;21.20;99.90
22678;DHT22;26259;50.214;18.620;2022-08-24T07:57:49;21.20;99.90
22678;DHT22;26259;50.214;18.620;2022-08-24T08:00:16;21.30;99.90
22678;DHT22;26259;50.214;18.620;2022-08-24T08:02:44;21.30;99.90
22678;DHT22;26259;50.214;18.620;2022-08-24T08:05:13;21.40;99.90
22678;DHT22;26259;50.214;18.620;2022-08-24T08:07:39;21.50;99.90
22678;DHT22;26259;50.214;18.620;2022-08-24T08:10:05;21.50;99.90
22678;DHT22;26259;50.214;18.620;2022-08-24T08:12:31;21.50;99.90
22678;DHT22;26259;50.214;18.620;2022-08-24T08:14:59;21.40;99.90
22678;DHT22;26259;50.214;18.620;2022-08-24T08:17:25;21.40;99.90
22678;DHT22;26259;50.214;18.620;2022-08-24T08:19:51;21.50;99.90
22678;DHT22;26259;50.214;18.620;2022-08-24T08:22:17;21.60;99.90
22678;DHT22;26259;50.214;18.620;2022-08-24T08:25:03;21.90;99.90
22678;DHT22;26259;50.214;18.620;2022-08-24T08:27:31;21.90;99.90
22678;DHT22;26259;50.214;18.620;2022-08-24T08:29:57;22.00;99.90
22678;DHT22;26259;50.214;18.620;2022-08-24T08:32:23;22.00;99.90
22678;DHT22;26259;50.214;18.620;2022-08-24T08:34:48;22.10;99.90
22678;DHT22;26259;50.214;18.620;2022-08-24T08:37:14;22.20;99.90
22678;DHT22;26259;50.214;18.620;2022-08-24T08:39:40;22.20;99.90
22678;DHT22;26259;50.214;18.620;2022-08-24T08:45:54;22.30;99.90
22678;DHT22;26259;50.214;18.620;2022-08-24T08:56:31;22.80;99.90
22678;DHT22;26259;50.214;18.620;2022-08-24T09:01:44;23.10;99.90
22678;DHT22;26259;50.214;18.620;2022-08-24T09:15:28;23.30;99.90
22678;DHT22;26259;50.214;18.620;2022-08-24T09:23:35;23.60;99.90
22678;DHT22;26259;50.214;18.620;2022-08-24T09:26:35;23.50;99.90
22678;DHT22;26259;50.214;18.620;2022-08-24T09:29:22;23.50;99.90
22678;DHT22;26259;50.214;18.620;2022-08-24T09:32:02;23.40;99.90
22678;DHT22;26259;50.214;18.620;2022-08-24T09:34:52;23.50;99.90
22678;DHT22;26259;50.214;18.620;2022-08-24T09:43:31;23.60;99.90
22678;DHT22;26259;50.214;18.620;2022-08-24T10:00:49;23.80;99.90
22678;DHT22;26259;50.214;18.620;2022-08-24T10:03:40;23.80;99.90
22678;DHT22;26259;50.214;18.620;2022-08-24T10:06:31;23.80;99.90
22678;DHT22;26259;50.214;18.620;2022-08-24T10:15:07;23.80;99.90
22678;DHT22;26259;50.214;18.620;2022-08-24T10:31:58;24.20;99.90
22678;DHT22;26259;50.214;18.620;2022-08-24T10:46:16;25.50;99.90
22678;DHT22;26259;50.214;18.620;2022-08-24T10:51:37;25.90;99.90
22678;DHT22;26259;50.214;18.620;2022-08-24T10:54:10;26.00;99.90
22678;DHT22;26259;50.214;18.620;2022-08-24T10:56:52;26.20;99.90
22678;DHT22;26259;50.214;18.620;2022-08-24T10:59:49;26.30;99.90
22678;DHT22;26259;50.214;18.620;2022-08-24T11:05:08;26.40;99.90
22678;DHT22;26259;50.214;18.620;2022-08-24T11:07:54;26.50;99.90
22678;DHT22;26259;50.214;18.620;2022-08-24T11:10:31;26.50;99.90
22678;DHT22;26259;50.214;18.620;2022-08-24T11:15:55;26.40;99.90
22678;DHT22;26259;50.214;18.620;2022-08-24T11:18:21;26.30;99.90
22678;DHT22;26259;50.214;18.620;2022-08-24T11:20:49;26.00;99.90
22678;DHT22;26259;50.214;18.620;2022-08-24T11:23:19;25.90;99.90
22678;DHT22;26259;50.214;18.620;2022-08-24T11:28:30;25.50;99.90
22678;DHT22;26259;50.214;18.620;2022-08-24T11:30:57;25.30;99.90
22678;DHT22;26259;50.214;18.620;2022-08-24T11:33:25;25.00;99.90
22678;DHT22;26259;50.214;18.620;2022-08-24T11:35:51;25.00;99.90
22678;DHT22;26259;50.214;18.620;2022-08-24T11:38:26;24.90;99.90
22678;DHT22;26259;50.214;18.620;2022-08-24T11:41:11;24.80;99.90
22678;DHT22;26259;50.214;18.620;2022-08-24T11:47:02;25.20;99.90
22678;DHT22;26259;50.214;18.620;2022-08-24T11:49:45;25.50;99.90
22678;DHT22;26259;50.214;18.620;2022-08-24T11:55:07;26.20;99.90
22678;DHT22;26259;50.214;18.620;2022-08-24T11:57:53;26.40;99.90
22678;DHT22;26259;50.214;18.620;2022-08-24T12:00:23;26.50;99.90
22678;DHT22;26259;50.214;18.620;2022-08-24T12:03:00;26.80;99.90
22678;DHT22;26259;50.214;18.620;2022-08-24T12:16:59;27.00;99.90
22678;DHT22;26259;50.214;18.620;2022-08-24T12:19:27;26.90;99.90
22678;DHT22;26259;50.214;18.620;2022-08-24T12:21:56;26.70;99.90
22678;DHT22;26259;50.214;18.620;2022-08-24T12:24:31;26.60;99.90
22678;DHT22;26259;50.214;18.620;2022-08-24T12:30:00;26.70;99.90
22678;DHT22;26259;50.214;18.620;2022-08-24T12:33:02;26.80;99.90
22678;DHT22;26259;50.214;18.620;2022-08-24T12:35:38;26.90;99.90
22678;DHT22;26259;50.214;18.620;2022-08-24T12:38:22;26.80;99.90
22678;DHT22;26259;50.214;18.620;2022-08-24T12:40:58;26.70;99.90
22678;DHT22;26259;50.214;18.620;2022-08-24T12:44:21;26.50;99.90
22678;DHT22;26259;50.214;18.620;2022-08-24T12:46:24;26.30;99.90
22678;DHT22;26259;50.214;18.620;2022-08-24T12:49:06;26.40;99.90
22678;DHT22;26259;50.214;18.620;2022-08-24T12:59:56;25.80;99.90
22678;DHT22;26259;50.214;18.620;2022-08-24T13:02:25;25.80;99.90
22678;DHT22;26259;50.214;18.620;2022-08-24T13:17:54;26.20;99.90
22678;DHT22;26259;50.214;18.620;2022-08-24T13:33:59;26.40;99.90
22678;DHT22;26259;50.214;18.620;2022-08-24T13:45:07;25.90;99.90
22678;DHT22;26259;50.214;18.620;2022-08-24T13:53:13;26.10;99.90
22678;DHT22;26259;50.214;18.620;2022-08-24T13:55:49;26.20;99.90
22678;DHT22;26259;50.214;18.620;2022-08-24T14:00:53;26.20;99.90
22678;DHT22;26259;50.214;18.620;2022-08-24T14:06:07;26.20;99.90
22678;DHT22;26259;50.214;18.620;2022-08-24T14:11:56;26.50;99.90
22678;DHT22;26259;50.214;18.620;2022-08-24T14:25:36;26.10;99.90
22678;DHT22;26259;50.214;18.620;2022-08-24T14:28:33;26.00;99.90
22678;DHT22;26259;50.214;18.620;2022-08-24T14:31:18;25.90;99.90
22678;DHT22;26259;50.214;18.620;2022-08-24T14:34:14;25.70;99.90
22678;DHT22;26259;50.214;18.620;2022-08-24T14:37:04;25.50;99.90
22678;DHT22;26259;50.214;18.620;2022-08-24T14:50:18;25.30;99.90
22678;DHT22;26259;50.214;18.620;2022-08-24T14:55:43;25.40;99.90
22678;DHT22;26259;50.214;18.620;2022-08-24T15:00:58;25.50;99.90
22678;DHT22;26259;50.214;18.620;2022-08-24T15:06:36;25.40;99.90
22678;DHT22;26259;50.214;18.620;2022-08-24T15:11:46;25.40;99.90
22678;DHT22;26259;50.214;18.620;2022-08-24T15:14:23;25.40;99.90
22678;DHT22;26259;50.214;18.620;2022-08-24T15:17:02;25.40;99.90
22678;DHT22;26259;50.214;18.620;2022-08-24T15:22:24;25.50;99.90
22678;DHT22;26259;50.214;18.620;2022-08-24T15:30:16;25.40;99.90
22678;DHT22;26259;50.214;18.620;2022-08-24T15:32:46;25.40;99.90
22678;DHT22;26259;50.214;18.620;2022-08-24T15:35:28;25.30;99.90
22678;DHT22;26259;50.214;18.620;2022-08-24T15:37:54;25.30;99.90
22678;DHT22;26259;50.214;18.620;2022-08-24T15:40:27;25.20;99.90
22678;DHT22;26259;50.214;18.620;2022-08-24T15:42:59;25.20;99.90
22678;DHT22;26259;50.214;18.620;2022-08-24T15:45:28;25.10;99.90
22678;DHT22;26259;50.214;18.620;2022-08-24T15:47:55;25.10;99.90
22678;DHT22;26259;50.214;18.620;2022-08-24T15:50:31;25.10;99.90
22678;DHT22;26259;50.214;18.620;2022-08-24T15:55:55;25.20;99.90
22678;DHT22;26259;50.214;18.620;2022-08-24T15:58:33;25.30;99.90
22678;DHT22;26259;50.214;18.620;2022-08-24T16:04:01;25.20;99.90
22678;DHT22;26259;50.214;18.620;2022-08-24T16:06:35;25.20;99.90
22678;DHT22;26259;50.214;18.620;2022-08-24T16:12:08;25.10;99.90
22678;DHT22;26259;50.214;18.620;2022-08-24T16:14:48;24.90;99.90
22678;DHT22;26259;50.214;18.620;2022-08-24T16:17:32;24.90;99.90
22678;DHT22;26259;50.214;18.620;2022-08-24T16:20:46;24.80;99.90
22678;DHT22;26259;50.214;18.620;2022-08-24T16:22:51;24.80;99.90
22678;DHT22;26259;50.214;18.620;2022-08-24T16:25:31;24.70;99.90
22678;DHT22;26259;50.214;18.620;2022-08-24T16:30:53;24.70;99.90
22678;DHT22;26259;50.214;18.620;2022-08-24T16:35:55;24.70;99.90
22678;DHT22;26259;50.214;18.620;2022-08-24T16:38:21;24.70;99.90
22678;DHT22;26259;50.214;18.620;2022-08-24T16:40:46;24.60;99.90
22678;DHT22;26259;50.214;18.620;2022-08-24T16:43:12;24.60;99.90
22678;DHT22;26259;50.214;18.620;2022-08-24T16:45:38;24.50;99.90
22678;DHT22;26259;50.214;18.620;2022-08-24T16:48:05;24.50;99.90
22678;DHT22;26259;50.214;18.620;2022-08-24T16:50:30;24.40;99.90
22678;DHT22;26259;50.214;18.620;2022-08-24T16:52:56;24.30;99.90
22678;DHT22;26259;50.214;18.620;2022-08-24T16:55:22;24.20;99.90
22678;DHT22;26259;50.214;18.620;2022-08-24T16:57:48;24.10;99.90
22678;DHT22;26259;50.214;18.620;2022-08-24T17:00:16;24.10;99.90
22678;DHT22;26259;50.214;18.620;2022-08-24T17:02:44;24.10;99.90
22678;DHT22;26259;50.214;18.620;2022-08-24T17:05:14;24.00;99.90
22678;DHT22;26259;50.214;18.620;2022-08-24T17:07:40;24.00;99.90
22678;DHT22;26259;50.214;18.620;2022-08-24T17:10:09;23.90;99.90
22678;DHT22;26259;50.214;18.620;2022-08-24T17:12:35;23.80;99.90
22678;DHT22;26259;50.214;18.620;2022-08-24T17:15:04;23.70;99.90
22678;DHT22;26259;50.214;18.620;2022-08-24T17:17:30;23.60;99.90
22678;DHT22;26259;50.214;18.620;2022-08-24T17:19:56;23.60;99.90
22678;DHT22;26259;50.214;18.620;2022-08-24T17:22:22;23.50;99.90
22678;DHT22;26259;50.214;18.620;2022-08-24T17:24:49;23.40;99.90
22678;DHT22;26259;50.214;18.620;2022-08-24T17:27:16;23.30;99.90
22678;DHT22;26259;50.214;18.620;2022-08-24T17:29:42;23.20;99.90
22678;DHT22;26259;50.214;18.620;2022-08-24T17:32:09;23.10;99.90
22678;DHT22;26259;50.214;18.620;2022-08-24T17:34:35;23.10;99.90
22678;DHT22;26259;50.214;18.620;2022-08-24T17:37:01;23.00;99.90
22678;DHT22;26259;50.214;18.620;2022-08-24T17:39:28;22.90;99.90
22678;DHT22;26259;50.214;18.620;2022-08-24T17:41:55;22.80;99.90
22678;DHT22;26259;50.214;18.620;2022-08-24T17:44:26;22.70;99.90
22678;DHT22;26259;50.214;18.620;2022-08-24T17:46:56;22.60;99.90
22678;DHT22;26259;50.214;18.620;2022-08-24T17:49:22;22.50;99.90
22678;DHT22;26259;50.214;18.620;2022-08-24T17:51:48;22.40;99.90
22678;DHT22;26259;50.214;18.620;2022-08-24T17:54:15;22.30;99.90
22678;DHT22;26259;50.214;18.620;2022-08-24T17:56:40;22.20;99.90
22678;DHT22;26259;50.214;18.620;2022-08-24T17:59:08;22.10;99.90
22678;DHT22;26259;50.214;18.620;2022-08-24T18:01:54;22.00;99.90
22678;DHT22;26259;50.214;18.620;2022-08-24T18:04:21;21.90;99.90
22678;DHT22;26259;50.214;18.620;2022-08-24T18:06:50;21.80;99.90
22678;DHT22;26259;50.214;18.620;2022-08-24T18:09:29;21.80;99.90
22678;DHT22;26259;50.214;18.620;2022-08-24T18:11:54;21.70;99.90
22678;DHT22;26259;50.214;18.620;2022-08-24T18:14:20;21.70;99.90
22678;DHT22;26259;50.214;18.620;2022-08-24T18:16:46;21.60;99.90
22678;DHT22;26259;50.214;18.620;2022-08-24T18:19:12;21.50;99.90
22678;DHT22;26259;50.214;18.620;2022-08-24T18:21:39;21.50;99.90
22678;DHT22;26259;50.214;18.620;2022-08-24T18:24:05;21.40;99.90
22678;DHT22;26259;50.214;18.620;2022-08-24T18:26:31;21.40;99.90
22678;DHT22;26259;50.214;18.620;2022-08-24T18:28:59;21.40;99.90
22678;DHT22;26259;50.214;18.620;2022-08-24T18:31:26;21.30;99.90
22678;DHT22;26259;50.214;18.620;2022-08-24T18:33:52;21.20;99.90
22678;DHT22;26259;50.214;18.620;2022-08-24T18:36:19;21.30;99.90
22678;DHT22;26259;50.214;18.620;2022-08-24T18:38:44;21.20;99.90
22678;DHT22;26259;50.214;18.620;2022-08-24T18:41:10;21.20;99.90
22678;DHT22;26259;50.214;18.620;2022-08-24T18:43:37;21.10;99.90
22678;DHT22;26259;50.214;18.620;2022-08-24T18:46:03;21.00;99.90
22678;DHT22;26259;50.214;18.620;2022-08-24T18:48:30;21.00;99.90
22678;DHT22;26259;50.214;18.620;2022-08-24T18:50:57;21.00;99.90
22678;DHT22;26259;50.214;18.620;2022-08-24T18:53:24;21.00;99.90
22678;DHT22;26259;50.214;18.620;2022-08-24T18:55:51;21.00;99.90
22678;DHT22;26259;50.214;18.620;2022-08-24T18:58:17;21.00;99.90
22678;DHT22;26259;50.214;18.620;2022-08-24T19:00:42;21.00;99.90
22678;DHT22;26259;50.214;18.620;2022-08-24T19:03:12;21.00;99.90
22678;DHT22;26259;50.214;18.620;2022-08-24T19:05:39;20.90;99.90
22678;DHT22;26259;50.214;18.620;2022-08-24T19:08:05;20.90;99.90
22678;DHT22;26259;50.214;18.620;2022-08-24T19:10:35;20.90;99.90
22678;DHT22;26259;50.214;18.620;2022-08-24T19:13:05;20.90;99.90
22678;DHT22;26259;50.214;18.620;2022-08-24T19:15:32;20.90;99.90
22678;DHT22;26259;50.214;18.620;2022-08-24T19:17:58;20.90;99.90
22678;DHT22;26259;50.214;18.620;2022-08-24T19:20:23;20.90;99.90